Time;durP1;ratioP1;P1;durP2;ratioP2;P2;SDS_P1;SDS_P2;PMS_P1;PMS_P2;Temp;Humidity;BMP_temperature;BMP_pressure;BME280_temperature;BME280_humidity;BME280_pressure;Samples;Min_cycle;Max_cycle;Signal;HPM_P1;HPM_P2
2023/05/26 00:00:21;;;;;;;0.13;0.13;;;8.10;24.20;;;;;;5048874;28;20057;-81
2023/05/26 00:02:47;;;;;;;0.28;0.25;;;8.10;30.90;;;;;;5048689;28;20164;-80
2023/05/26 00:05:13;;;;;;;0.43;0.30;;;8.10;30.10;;;;;;5032603;28;20049;-81
2023/05/26 00:07:40;;;;;;;0.30;0.30;;;8.10;32.80;;;;;;5032735;28;20056;-81
2023/05/26 00:10:10;;;;;;;0.30;0.30;;;8.10;22.60;;;;;;5046218;28;20445;-80
2023/05/26 00:12:36;;;;;;;0.43;0.28;;;8.20;27.20;;;;;;5050055;28;20102;-80
2023/05/26 00:15:03;;;;;;;;;;;8.10;25.20;;;;;;5033284;28;20052;-81
2023/05/26 00:17:28;;;;;;;0.60;0.35;;;8.20;44.20;;;;;;5066162;28;19948;-86
2023/05/26 00:19:54;;;;;;;0.70;0.53;;;8.20;34.60;;;;;;5048926;28;20049;-81
2023/05/26 00:22:21;;;;;;;1.07;0.80;;;8.20;35.90;;;;;;5053056;28;20041;-81
2023/05/26 00:24:46;;;;;;;0.30;0.30;;;8.20;35.80;;;;;;5052837;28;20053;-80
2023/05/26 00:27:13;;;;;;;0.27;0.20;;;8.10;34.00;;;;;;5035892;28;20453;-81
2023/05/26 00:29:38;;;;;;;0.40;0.40;;;8.10;30.00;;;;;;5053066;28;20128;-81
2023/05/26 00:32:05;;;;;;;0.40;0.40;;;8.10;33.60;;;;;;5052508;28;20476;-81
2023/05/26 00:34:33;;;;;;;0.43;0.30;;;8.10;29.10;;;;;;5052479;28;20048;-87
2023/05/26 00:37:00;;;;;;;0.60;0.28;;;8.00;33.80;;;;;;5036088;28;20045;-81
2023/05/26 00:39:26;;;;;;;2.55;1.45;;;8.00;29.50;;;;;;5036069;28;20482;-81
2023/05/26 00:41:52;;;;;;;0.85;0.50;;;8.00;28.30;;;;;;5018885;28;20359;-81
2023/05/26 00:44:18;;;;;;;0.45;0.17;;;7.90;28.60;;;;;;5037414;28;20039;-81
2023/05/26 00:46:44;;;;;;;0.50;0.47;;;7.90;31.50;;;;;;5053970;28;20053;-81
2023/05/26 00:49:09;;;;;;;1.40;0.20;;;7.80;29.90;;;;;;5054669;28;20052;-81
2023/05/26 00:51:35;;;;;;;0.43;0.20;;;7.80;34.20;;;;;;5053708;28;20048;-85
2023/05/26 00:54:01;;;;;;;0.30;0.20;;;7.80;35.00;;;;;;5054425;28;20558;-81
2023/05/26 00:56:31;;;;;;;2.73;0.60;;;7.70;40.40;;;;;;5054595;28;20049;-81
2023/05/26 00:58:58;;;;;;;0.70;0.30;;;7.70;40.60;;;;;;5052915;28;20094;-81
2023/05/26 01:01:25;;;;;;;0.55;0.25;;;7.70;42.90;;;;;;5055554;28;20067;-81
2023/05/26 01:03:51;;;;;;;0.30;0.30;;;7.70;45.10;;;;;;5070265;28;20182;-81
2023/05/26 01:06:17;;;;;;;0.17;0.17;;;7.70;45.10;;;;;;5054180;28;20509;-81
2023/05/26 01:08:43;;;;;;;1.77;0.30;;;7.60;47.00;;;;;;5054326;28;20049;-82
2023/05/26 01:11:20;;;;;;;0.47;0.47;;;7.60;46.20;;;;;;5039051;28;20512;-81
2023/05/26 01:14:21;;;;;;;0.32;0.20;;;7.50;48.90;;;;;;5036839;28;20184;-81
2023/05/26 01:16:54;;;;;;;0.52;0.35;;;7.50;49.90;;;;;;5084859;28;20049;-82
2023/05/26 01:19:42;;;;;;;1.35;0.30;;;7.50;49.40;;;;;;5035587;28;20104;-82
2023/05/26 01:22:42;;;;;;;0.65;0.50;;;7.50;54.60;;;;;;5052607;28;20041;-81
2023/05/26 01:25:36;;;;;;;0.32;0.20;;;7.40;53.00;;;;;;5034636;28;20052;-81
2023/05/26 01:28:16;;;;;;;0.30;0.30;;;7.40;56.40;;;;;;5052979;28;20047;-81
2023/05/26 01:30:43;;;;;;;0.25;0.25;;;7.30;50.30;;;;;;5050820;28;20098;-81
2023/05/26 01:33:08;;;;;;;;;;;7.30;56.50;;;;;;5052352;28;20040;-81
2023/05/26 01:35:34;;;;;;;0.80;0.30;;;7.20;58.70;;;;;;5034488;28;20420;-81
2023/05/26 01:38:01;;;;;;;0.20;0.20;;;7.20;54.90;;;;;;5053432;28;20080;-81
2023/05/26 01:40:27;;;;;;;;;;;7.20;55.60;;;;;;5037580;28;20045;-81
2023/05/26 01:43:02;;;;;;;0.40;0.22;;;7.20;68.00;;;;;;5052439;28;19921;-82
2023/05/26 01:45:54;;;;;;;0.38;0.32;;;7.20;63.80;;;;;;5049084;28;20087;-81
2023/05/26 01:48:20;;;;;;;1.25;0.70;;;7.10;63.80;;;;;;5040735;28;20071;-81
2023/05/26 01:50:57;;;;;;;1.00;0.38;;;7.10;59.60;;;;;;5034451;28;20490;-82
2023/05/26 01:53:35;;;;;;;0.25;0.25;;;7.10;59.40;;;;;;5050574;28;20040;-82
2023/05/26 01:56:00;;;;;;;;;;;7.00;65.50;;;;;;5068934;28;20053;-81
2023/05/26 01:58:27;;;;;;;0.38;0.30;;;7.00;68.70;;;;;;5051353;28;20371;-81
2023/05/26 02:00:53;;;;;;;0.15;0.15;;;7.00;67.10;;;;;;5034062;28;20401;-81
2023/05/26 02:03:20;;;;;;;0.10;0.10;;;6.90;64.70;;;;;;5018450;28;20135;-82
2023/05/26 02:05:46;;;;;;;0.20;0.20;;;6.90;64.70;;;;;;5035438;28;20143;-81
2023/05/26 02:08:12;;;;;;;0.73;0.43;;;6.90;66.50;;;;;;5035592;28;20044;-81
2023/05/26 02:10:41;;;;;;;0.25;0.20;;;6.80;66.70;;;;;;5051289;28;20044;-81
2023/05/26 02:13:07;;;;;;;0.20;0.20;;;6.80;74.10;;;;;;5050299;28;20045;-84
2023/05/26 02:15:33;;;;;;;0.20;0.20;;;7.80;72.00;;;;;;5034462;28;20135;-81
2023/05/26 02:17:58;;;;;;;0.77;0.60;;;6.80;71.20;;;;;;5051904;28;20041;-81
2023/05/26 02:20:25;;;;;;;0.50;0.50;;;6.80;71.60;;;;;;5033014;28;20041;-81
2023/05/26 02:22:51;;;;;;;0.15;0.15;;;6.70;70.60;;;;;;5033993;28;20045;-81
2023/05/26 02:25:17;;;;;;;2.00;0.30;;;6.70;69.10;;;;;;5050822;28;20498;-82
2023/05/26 02:27:43;;;;;;;0.30;0.20;;;6.70;65.80;;;;;;5034324;28;20041;-82
2023/05/26 02:30:09;;;;;;;0.20;0.20;;;6.60;72.70;;;;;;5048210;28;20167;-81
2023/05/26 02:32:36;;;;;;;0.13;0.13;;;6.60;74.90;;;;;;5034259;28;20042;-81
2023/05/26 02:35:03;;;;;;;;;;;6.60;73.60;;;;;;5067651;28;20295;-81
2023/05/26 02:37:29;;;;;;;0.25;0.25;;;6.60;84.00;;;;;;5050458;28;19927;-83
2023/05/26 02:39:56;;;;;;;0.28;0.28;;;6.50;82.60;;;;;;5030686;28;20040;-81
2023/05/26 02:42:21;;;;;;;0.10;0.10;;;6.60;84.30;;;;;;5051769;28;20499;-81
2023/05/26 02:44:47;;;;;;;0.37;0.37;;;6.60;84.10;;;;;;5016112;28;20126;-82
2023/05/26 02:47:13;;;;;;;0.43;0.20;;;6.60;83.40;;;;;;5050740;28;20086;-81
2023/05/26 02:49:40;;;;;;;0.37;0.23;;;6.60;82.60;;;;;;5050957;28;20049;-84
2023/05/26 02:52:06;;;;;;;0.32;0.30;;;6.60;81.20;;;;;;5033470;28;20055;-81
2023/05/26 02:54:31;;;;;;;0.33;0.27;;;6.60;77.90;;;;;;5050284;28;20128;-81
2023/05/26 02:56:57;;;;;;;0.37;0.37;;;6.50;80.70;;;;;;5033350;28;20154;-81
2023/05/26 02:59:23;;;;;;;0.27;0.27;;;6.50;79.00;;;;;;5051243;28;20059;-81
2023/05/26 03:01:49;;;;;;;0.17;0.17;;;6.50;79.20;;;;;;5051271;28;20055;-81
2023/05/26 03:04:14;;;;;;;0.37;0.03;;;6.50;79.20;;;;;;5033496;28;20057;-81
2023/05/26 03:06:41;;;;;;;0.77;0.30;;;6.50;75.90;;;;;;5034370;28;20081;-81
2023/05/26 03:09:07;;;;;;;;;;;6.40;76.80;;;;;;5048179;28;20048;-83
2023/05/26 03:11:33;;;;;;;0.95;0.20;;;6.40;81.60;;;;;;5049359;28;19974;-81
2023/05/26 03:14:00;;;;;;;0.20;0.20;;;6.40;80.70;;;;;;5049104;28;21814;-81
2023/05/26 03:16:26;;;;;;;0.88;0.30;;;6.40;79.00;;;;;;5051236;28;20045;-81
2023/05/26 03:18:52;;;;;;;0.47;0.40;;;6.40;79.80;;;;;;5050088;28;20102;-81
2023/05/26 03:21:18;;;;;;;0.22;0.22;;;6.40;81.90;;;;;;5032007;28;20041;-81
2023/05/26 03:23:44;;;;;;;0.20;0.20;;;6.40;80.20;;;;;;5049624;28;20414;-81
2023/05/26 03:26:10;;;;;;;0.90;0.30;;;6.00;82.20;;;;;;5048805;28;20041;-82
2023/05/26 03:28:36;;;;;;;0.43;0.23;;;6.30;84.50;;;;;;5050525;28;20433;-81
2023/05/26 03:31:02;;;;;;;0.47;0.30;;;6.40;84.70;;;;;;5049305;28;20546;-81
2023/05/26 03:33:29;;;;;;;0.57;0.33;;;6.40;84.90;;;;;;5049964;28;20049;-81
2023/05/26 03:35:55;;;;;;;0.40;0.40;;;6.40;86.50;;;;;;5032464;28;20331;-88
2023/05/26 03:38:21;;;;;;;1.65;0.40;;;7.10;88.50;;;;;;5049204;28;20122;-81
2023/05/26 03:40:46;;;;;;;0.63;0.50;;;6.40;88.20;;;;;;5052133;28;20486;-81
2023/05/26 03:43:12;;;;;;;1.43;0.30;;;6.40;87.10;;;;;;5050797;28;20077;-80
2023/05/26 03:45:38;;;;;;;0.40;0.40;;;6.50;89.80;;;;;;5052361;28;20049;-81
2023/05/26 03:48:04;;;;;;;0.20;0.20;;;6.30;87.90;;;;;;5030642;28;20046;-81
2023/05/26 03:50:29;;;;;;;0.10;0.10;;;6.30;88.40;;;;;;5047854;28;20483;-81
2023/05/26 03:52:56;;;;;;;0.33;0.30;;;6.40;90.10;;;;;;5064640;28;20323;-81
2023/05/26 03:55:22;;;;;;;0.73;0.40;;;6.30;89.90;;;;;;5047163;28;20115;-81
2023/05/26 03:57:48;;;;;;;0.20;0.20;;;6.30;88.30;;;;;;5065156;28;20061;-81
2023/05/26 04:00:14;;;;;;;0.57;0.53;;;6.30;86.30;;;;;;5047012;28;20477;-81
2023/05/26 04:02:40;;;;;;;0.40;0.20;;;6.30;87.40;;;;;;5070178;28;20133;-81
2023/05/26 04:05:07;;;;;;;0.20;0.20;;;6.30;88.30;;;;;;5051924;28;20049;-81
2023/05/26 04:07:33;;;;;;;0.52;0.17;;;6.40;88.40;;;;;;5051196;28;20132;-81
2023/05/26 04:09:58;;;;;;;0.50;0.50;;;6.40;88.10;;;;;;5050947;28;20125;-81
2023/05/26 04:12:24;;;;;;;0.30;0.20;;;6.40;90.20;;;;;;5049085;28;20114;-81
2023/05/26 04:14:50;;;;;;;0.30;0.30;;;6.50;91.20;;;;;;5048911;28;20509;-81
2023/05/26 04:17:15;;;;;;;0.60;0.60;;;6.40;91.70;;;;;;5016197;28;20143;-82
2023/05/26 04:19:41;;;;;;;0.50;0.30;;;6.50;91.80;;;;;;5050202;28;20041;-81
2023/05/26 04:22:07;;;;;;;3.10;0.50;;;6.50;91.80;;;;;;5049619;28;20041;-81
2023/05/26 04:24:32;;;;;;;0.70;0.70;;;6.50;91.60;;;;;;5050315;28;20053;-81
2023/05/26 04:26:58;;;;;;;0.50;0.47;;;6.60;91.50;;;;;;5031940;28;20045;-82
2023/05/26 04:29:24;;;;;;;1.37;0.30;;;6.70;91.50;;;;;;5048702;28;20037;-82
2023/05/26 04:31:50;;;;;;;1.60;0.83;;;6.70;91.30;;;;;;5049971;28;20049;-81
2023/05/26 04:34:21;;;;;;;0.20;0.20;;;6.80;90.80;;;;;;5049510;28;20045;-81
2023/05/26 04:36:48;;;;;;;1.55;1.05;;;6.80;85.00;;;;;;5032697;28;20071;-82
2023/05/26 04:39:15;;;;;;;0.20;0.20;;;6.90;82.90;;;;;;5031762;28;20044;-82
2023/05/26 04:41:41;;;;;;;0.20;0.20;;;6.90;83.00;;;;;;5047491;28;20422;-81
2023/05/26 04:44:07;;;;;;;0.30;0.30;;;7.00;75.50;;;;;;5032395;28;20162;-82
2023/05/26 04:46:37;;;;;;;0.32;0.20;;;7.00;76.30;;;;;;5034388;28;20048;-81
2023/05/26 04:49:09;;;;;;;0.50;0.50;;;7.10;80.00;;;;;;5034187;28;20053;-82
2023/05/26 04:51:35;;;;;;;1.08;0.25;;;7.10;82.70;;;;;;5034529;28;20049;-81
2023/05/26 04:54:01;;;;;;;0.22;0.22;;;7.30;82.00;;;;;;5034333;28;20559;-81
2023/05/26 04:56:27;;;;;;;0.40;0.40;;;7.40;78.90;;;;;;5049389;28;20107;-81
2023/05/26 04:58:53;;;;;;;0.00;0.00;;;7.40;74.00;;;;;;5050577;28;20131;-81
2023/05/26 05:01:19;;;;;;;0.93;0.33;;;7.50;81.20;;;;;;5049323;28;20079;-80
2023/05/26 05:03:44;;;;;;;0.30;0.30;;;7.70;70.50;;;;;;5050914;28;20045;-81
2023/05/26 05:06:13;;;;;;;0.27;0.20;;;8.20;59.10;;;;;;5033712;28;20121;-82
2023/05/26 05:08:39;;;;;;;1.08;0.40;;;8.70;44.70;;;;;;5053508;28;20517;-81
2023/05/26 05:11:05;;;;;;;0.20;0.17;;;9.10;27.50;;;;;;5054459;28;20053;-81
2023/05/26 05:13:34;;;;;;;0.10;0.10;;;9.60;15.00;;;;;;5053700;28;20049;-81
2023/05/26 05:16:00;;;;;;;0.17;0.17;;;9.90;1.00;;;;;;5086577;28;20124;-81
2023/05/26 05:18:26;;;;;;;1.65;0.45;;;10.10;1.00;;;;;;5035375;28;20048;-81
2023/05/26 05:20:51;;;;;;;0.10;0.10;;;10.30;1.00;;;;;;5051752;28;20041;-81
2023/05/26 05:23:17;;;;;;;0.30;0.30;;;10.40;1.00;;;;;;5051180;28;20045;-81
2023/05/26 05:25:43;;;;;;;0.73;0.40;;;10.40;1.00;;;;;;5019497;28;20098;-81
2023/05/26 05:28:12;;;;;;;1.00;0.60;;;10.30;1.00;;;;;;5052324;28;20045;-81
2023/05/26 05:30:37;;;;;;;0.15;0.15;;;10.20;1.00;;;;;;5032063;28;20067;-82
2023/05/26 05:33:03;;;;;;;0.63;0.30;;;10.20;1.00;;;;;;5034826;28;20033;-82
2023/05/26 05:35:29;;;;;;;0.40;0.30;;;10.30;1.00;;;;;;5051997;28;20041;-81
2023/05/26 05:37:57;;;;;;;0.30;0.10;;;10.40;1.00;;;;;;5070629;28;20388;-81
2023/05/26 05:40:23;;;;;;;1.48;1.17;;;10.50;1.00;;;;;;5054307;28;20048;-81
2023/05/26 05:42:48;;;;;;;0.23;0.23;;;10.70;1.00;;;;;;5052171;28;20090;-81
2023/05/26 05:45:14;;;;;;;0.47;0.40;;;10.70;1.00;;;;;;5050900;28;20072;-88
2023/05/26 05:47:40;;;;;;;0.40;0.40;;;11.00;1.00;;;;;;5052944;28;20044;-84
2023/05/26 05:50:06;;;;;;;0.47;0.47;;;11.20;1.00;;;;;;5051175;28;20037;-81
2023/05/26 05:52:32;;;;;;;0.63;0.30;;;11.50;1.00;;;;;;5051582;28;20502;-85
2023/05/26 05:54:57;;;;;;;0.10;0.10;;;11.60;1.00;;;;;;5052683;28;20063;-82
2023/05/26 05:57:23;;;;;;;0.43;0.20;;;11.50;1.00;;;;;;5048567;28;20052;-82
2023/05/26 05:59:49;;;;;;;0.83;0.60;;;11.80;1.00;;;;;;5033672;28;20501;-81
2023/05/26 06:02:15;;;;;;;2.80;0.40;;;12.00;1.00;;;;;;5052169;28;20055;-87
2023/05/26 06:04:40;;;;;;;0.50;0.33;;;12.10;1.00;;;;;;5051673;28;20291;-81
2023/05/26 06:07:06;;;;;;;0.43;0.23;;;12.10;1.00;;;;;;5036045;28;20112;-82
2023/05/26 06:09:33;;;;;;;0.57;0.30;;;12.10;1.00;;;;;;5051105;28;20455;-82
2023/05/26 06:11:59;;;;;;;;;;;12.30;1.00;;;;;;5035003;28;20048;-81
2023/05/26 06:14:25;;;;;;;0.10;0.10;;;12.50;1.00;;;;;;5084004;28;20286;-81
2023/05/26 06:16:50;;;;;;;0.57;0.33;;;12.70;1.00;;;;;;5051816;28;20052;-81
2023/05/26 06:19:16;;;;;;;0.60;0.47;;;12.90;1.00;;;;;;5050809;28;20315;-82
2023/05/26 06:21:42;;;;;;;0.10;0.10;;;12.90;1.00;;;;;;5050518;28;20538;-82
2023/05/26 06:24:07;;;;;;;0.27;0.27;;;12.80;1.00;;;;;;5051246;28;20044;-82
2023/05/26 06:26:33;;;;;;;0.97;0.30;;;12.60;1.00;;;;;;5050446;28;20124;-83
2023/05/26 06:28:59;;;;;;;0.20;0.20;;;12.40;1.00;;;;;;5033117;28;20049;-82
2023/05/26 06:31:25;;;;;;;0.43;0.30;;;12.30;1.00;;;;;;5066167;28;20049;-83
2023/05/26 06:33:51;;;;;;;0.40;0.40;;;12.10;1.00;;;;;;5051368;28;20075;-83
2023/05/26 06:36:17;;;;;;;0.80;0.40;;;12.00;1.00;;;;;;5051827;28;20075;-83
2023/05/26 06:38:43;;;;;;;2.20;0.83;;;11.90;1.00;;;;;;5050871;28;20076;-82
2023/05/26 06:41:09;;;;;;;0.30;0.30;;;11.80;1.00;;;;;;5050595;28;20032;-82
2023/05/26 06:43:34;;;;;;;0.90;0.43;;;11.70;1.00;;;;;;5050215;28;20060;-82
2023/05/26 06:46:00;;;;;;;0.50;0.30;;;11.70;1.00;;;;;;5053345;28;20049;-82
2023/05/26 06:48:26;;;;;;;0.10;0.10;;;11.80;1.00;;;;;;5052160;28;20094;-82
2023/05/26 06:50:53;;;;;;;0.97;0.40;;;11.90;1.00;;;;;;5052502;28;20049;-82
2023/05/26 06:53:19;;;;;;;0.20;0.20;;;12.10;1.00;;;;;;5049453;28;20045;-82
2023/05/26 06:55:44;;;;;;;1.17;0.30;;;12.30;1.00;;;;;;5033392;28;20385;-81
2023/05/26 06:58:10;;;;;;;0.37;0.30;;;12.60;1.00;;;;;;5040078;28;20110;-83
2023/05/26 07:00:36;;;;;;;0.60;0.60;;;13.00;1.00;;;;;;5051378;28;20049;-83
2023/05/26 07:03:02;;;;;;;4.65;0.80;;;13.40;1.00;;;;;;5035771;28;20057;-82
2023/05/26 07:05:28;;;;;;;;;;;13.80;99.90;;;;;;5050967;28;20065;-86
2023/05/26 07:07:54;;;;;;;0.10;0.10;;;14.20;76.70;;;;;;5060426;28;19963;-81
2023/05/26 07:10:19;;;;;;;0.50;0.50;;;14.60;99.90;;;;;;5070553;28;20052;-82
2023/05/26 07:12:45;;;;;;;0.55;0.40;;;15.00;99.90;;;;;;5024467;28;20601;-83
2023/05/26 07:15:11;;;;;;;1.67;0.63;;;15.30;1.00;;;;;;5046989;28;20086;-82
2023/05/26 07:17:37;;;;;;;0.55;0.55;;;15.60;99.90;;;;;;5049257;28;20090;-84
2023/05/26 07:20:03;;;;;;;2.60;0.75;;;15.80;18.20;;;;;;5083061;28;20045;-84
2023/05/26 07:22:28;;;;;;;0.25;0.22;;;15.90;99.90;;;;;;5049456;28;20068;-84
2023/05/26 07:24:54;;;;;;;0.30;0.20;;;16.10;1.00;;;;;;5033196;28;20053;-83
2023/05/26 07:27:20;;;;;;;0.43;0.30;;;16.10;1.00;;;;;;5049660;28;20072;-84
2023/05/26 07:29:45;;;;;;;0.20;0.20;;;16.00;99.90;;;;;;5015968;28;20044;-86
2023/05/26 07:32:11;;;;;;;0.70;0.60;;;15.90;99.90;;;;;;5032575;28;20091;-85
2023/05/26 07:34:37;;;;;;;0.55;0.38;;;15.90;99.90;;;;;;5034106;28;20049;-84
2023/05/26 07:37:02;;;;;;;1.23;0.85;;;15.80;83.50;;;;;;5049921;28;20045;-84
2023/05/26 07:39:28;;;;;;;0.20;0.20;;;15.90;99.90;;;;;;5032879;28;20418;-87
2023/05/26 07:41:54;;;;;;;0.20;0.20;;;15.80;99.90;;;;;;5033304;28;20044;-84
2023/05/26 07:44:19;;;;;;;0.25;0.20;;;16.00;99.90;;;;;;5049394;28;20419;-85
2023/05/26 07:46:45;;;;;;;0.20;0.20;;;16.00;1.00;;;;;;5050779;28;20045;-85
2023/05/26 07:49:11;;;;;;;0.95;0.30;;;16.20;14.80;;;;;;5032814;28;20080;-82
2023/05/26 07:51:37;;;;;;;0.85;0.55;;;16.40;15.20;;;;;;5066111;28;20401;-84
2023/05/26 07:54:02;;;;;;;0.75;0.40;;;16.50;99.90;;;;;;5050712;28;20057;-84
2023/05/26 07:56:28;;;;;;;0.40;0.30;;;16.40;99.90;;;;;;5050042;28;20383;-86
2023/05/26 07:58:54;;;;;;;0.20;0.20;;;16.40;39.60;;;;;;5050296;28;20104;-85
2023/05/26 08:01:20;;;;;;;0.13;0.10;;;16.40;99.90;;;;;;5031829;28;20049;-88
2023/05/26 08:03:47;;;;;;;1.00;0.30;;;16.50;1.00;;;;;;5051540;28;20045;-83
2023/05/26 08:06:13;;;;;;;0.50;0.30;;;16.60;99.90;;;;;;5049277;28;20067;-85
2023/05/26 08:08:39;;;;;;;0.40;0.40;;;16.60;99.90;;;;;;5049094;28;20471;-84
2023/05/26 08:11:04;;;;;;;0.63;0.63;;;16.70;99.90;;;;;;5033333;28;20052;-84
2023/05/26 08:13:30;;;;;;;0.70;0.70;;;16.70;1.00;;;;;;5049256;28;20047;-85
2023/05/26 08:15:56;;;;;;;0.45;0.30;;;16.80;1.00;;;;;;5049800;28;20049;-87
2023/05/26 08:18:21;;;;;;;0.35;0.35;;;16.80;99.90;;;;;;5033289;28;20041;-86
2023/05/26 08:20:52;;;;;;;0.57;0.57;;;16.90;99.90;;;;;;5050045;28;20501;-84
2023/05/26 08:23:19;;;;;;;0.43;0.30;;;16.90;1.00;;;;;;5050713;28;20045;-85
2023/05/26 08:25:45;;;;;;;0.85;0.60;;;16.90;40.80;;;;;;5048719;28;20091;-86
2023/05/26 08:28:11;;;;;;;0.40;0.20;;;16.90;99.90;;;;;;5049718;28;20037;-84
2023/05/26 08:30:36;;;;;;;1.85;0.50;;;17.00;99.90;;;;;;5048544;28;20136;-87
2023/05/26 08:33:02;;;;;;;1.63;0.40;;;17.10;99.90;;;;;;5049067;28;20120;-86
2023/05/26 08:35:29;;;;;;;0.60;0.32;;;17.30;99.90;;;;;;5031801;28;20049;-82
2023/05/26 08:37:54;;;;;;;0.57;0.22;;;17.50;46.40;;;;;;5031333;28;20095;-84
2023/05/26 08:40:20;;;;;;;0.55;0.55;;;17.50;99.90;;;;;;5047640;28;20117;-83
2023/05/26 08:42:49;;;;;;;0.60;0.30;;;17.60;1.00;;;;;;5032091;28;20132;-84
2023/05/26 08:45:15;;;;;;;0.73;0.65;;;17.60;99.90;;;;;;5052135;28;20437;-83
2023/05/26 08:47:44;;;;;;;0.13;0.13;;;17.60;99.90;;;;;;5053082;28;20087;-84
2023/05/26 08:50:11;;;;;;;0.43;0.40;;;17.70;1.00;;;;;;5050901;28;20131;-83
2023/05/26 08:52:40;;;;;;;0.57;0.28;;;17.70;1.00;;;;;;5019742;28;20037;-83
2023/05/26 08:55:08;;;;;;;0.45;0.45;;;17.80;99.90;;;;;;5053116;28;20071;-83
2023/05/26 08:57:34;;;;;;;0.20;0.20;;;17.90;99.90;;;;;;5036215;28;20438;-83
2023/05/26 09:00:01;;;;;;;;;;;17.90;1.00;;;;;;5053030;28;20671;-84
2023/05/26 09:02:27;;;;;;;0.60;0.32;;;18.00;99.90;;;;;;5054193;28;20016;-83
2023/05/26 09:04:53;;;;;;;0.25;0.13;;;18.10;1.00;;;;;;5051896;28;20131;-82
2023/05/26 09:07:19;;;;;;;0.82;0.55;;;18.20;4.50;;;;;;5052884;28;20537;-83
2023/05/26 09:09:45;;;;;;;0.57;0.57;;;18.40;16.70;;;;;;5035327;28;20049;-83
2023/05/26 09:12:12;;;;;;;0.68;0.68;;;18.50;99.90;;;;;;5054188;28;20065;-83
2023/05/26 09:14:38;;;;;;;0.85;0.60;;;18.50;99.90;;;;;;5052253;28;20037;-79
2023/05/26 09:17:05;;;;;;;0.65;0.38;;;18.70;99.90;;;;;;5051163;28;20139;-87
2023/05/26 09:19:32;;;;;;;1.15;0.35;;;18.70;4.50;;;;;;5034911;28;20071;-83
2023/05/26 09:22:05;;;;;;;0.40;0.28;;;18.60;26.90;;;;;;5052839;28;20080;-81
2023/05/26 09:24:46;;;;;;;0.38;0.38;;;18.70;1.00;;;;;;5051717;28;20079;-83
2023/05/26 09:27:23;;;;;;;1.15;0.10;;;18.70;1.00;;;;;;5052128;28;20143;-83
2023/05/26 09:29:52;;;;;;;2.05;1.40;;;18.70;99.90;;;;;;5052738;28;20041;-85
2023/05/26 09:32:18;;;;;;;1.45;1.20;;;18.60;99.90;;;;;;5019052;28;20044;-83
2023/05/26 09:34:44;;;;;;;0.43;0.35;;;18.40;1.00;;;;;;5035344;28;20045;-89
2023/05/26 09:37:11;;;;;;;0.10;0.10;;;18.50;1.00;;;;;;5043472;28;20052;-91
2023/05/26 09:39:37;;;;;;;0.35;0.30;;;18.40;1.00;;;;;;5035838;28;20048;-89
2023/05/26 09:42:09;;;;;;;0.22;0.22;;;18.40;1.00;;;;;;5049461;28;20041;-89
2023/05/26 09:44:35;;;;;;;0.35;0.35;;;18.40;1.00;;;;;;5052529;28;20407;-87
2023/05/26 09:47:01;;;;;;;0.22;0.10;;;18.50;1.00;;;;;;5051846;28;20060;-89
2023/05/26 09:49:26;;;;;;;0.40;0.40;;;18.50;1.00;;;;;;5052046;28;20049;-88
2023/05/26 09:51:52;;;;;;;0.35;0.22;;;18.40;1.00;;;;;;5032358;28;20049;-87
2023/05/26 09:54:18;;;;;;;0.22;0.22;;;18.40;99.90;;;;;;5051248;28;20052;-86
2023/05/26 09:56:58;;;;;;;0.32;0.32;;;18.40;99.90;;;;;;5052923;28;20037;-86
2023/05/26 09:59:31;;;;;;;0.28;0.28;;;18.20;99.90;;;;;;5050784;28;20051;-87
2023/05/26 10:01:58;;;;;;;0.70;0.60;;;18.20;99.90;;;;;;5035604;28;20430;-90
2023/05/26 10:04:24;;;;;;;0.15;0.15;;;18.20;1.00;;;;;;5050905;28;20045;-89
2023/05/26 10:06:52;;;;;;;0.40;0.32;;;18.30;1.00;;;;;;5051836;28;20593;-91
2023/05/26 10:09:21;;;;;;;0.10;0.10;;;18.30;1.00;;;;;;5050057;28;20041;-90
2023/05/26 10:11:50;;;;;;;0.40;0.30;;;18.50;99.90;;;;;;5052056;28;20049;-94
2023/05/26 10:14:17;;;;;;;0.70;0.47;;;18.50;99.90;;;;;;5042466;28;20052;-91
2023/05/26 10:16:43;;;;;;;1.48;0.32;;;18.50;99.90;;;;;;5078024;28;20114;-90
2023/05/26 10:19:09;;;;;;;1.05;0.43;;;18.60;1.00;;;;;;5035258;28;20044;-93
2023/05/26 10:21:44;;;;;;;1.30;0.28;;;18.60;99.90;;;;;;5053463;28;20067;-90
2023/05/26 10:24:13;;;;;;;0.90;0.45;;;18.60;99.90;;;;;;5058804;28;20071;-91
2023/05/26 10:26:45;;;;;;;0.50;0.40;;;18.50;1.00;;;;;;5061291;28;20048;-90
2023/05/26 10:29:14;;;;;;;3.75;0.68;;;18.60;99.90;;;;;;5058792;28;20045;-91
2023/05/26 10:31:40;;;;;;;0.90;0.40;;;18.60;99.90;;;;;;5065083;28;20049;-88
2023/05/26 10:34:14;;;;;;;0.30;0.30;;;18.70;1.00;;;;;;5052995;28;20375;-91
2023/05/26 10:36:41;;;;;;;1.75;0.65;;;18.80;99.90;;;;;;5038886;28;20053;-91
2023/05/26 10:39:11;;;;;;;0.30;0.30;;;19.00;1.00;;;;;;5051669;28;20060;-90
2023/05/26 10:41:47;;;;;;;0.57;0.40;;;19.00;99.90;;;;;;5021353;28;20383;-91
2023/05/26 10:44:43;;;;;;;0.38;0.22;;;19.00;99.90;;;;;;5036575;28;20059;-93
2023/05/26 10:47:14;;;;;;;0.20;0.20;;;19.00;99.90;;;;;;5051813;28;20110;-91
2023/05/26 10:49:40;;;;;;;0.38;0.30;;;19.10;99.90;;;;;;5036828;28;20136;-91
2023/05/26 10:52:13;;;;;;;0.25;0.17;;;18.90;99.90;;;;;;5037761;28;20127;-89
2023/05/26 10:54:40;;;;;;;2.13;0.35;;;18.90;99.90;;;;;;5051923;28;20610;-89
2023/05/26 10:57:25;;;;;;;0.43;0.43;;;18.80;99.90;;;;;;5034700;28;20060;-92
2023/05/26 10:59:53;;;;;;;1.08;0.40;;;18.90;99.90;;;;;;5051948;28;20057;-90
2023/05/26 11:02:21;;;;;;;1.30;0.50;;;18.90;99.90;;;;;;5050504;28;20045;-86
2023/05/26 11:04:49;;;;;;;0.57;0.57;;;18.80;99.90;;;;;;5052009;28;20040;-91
2023/05/26 11:07:22;;;;;;;0.70;0.50;;;18.90;99.90;;;;;;5048041;28;20057;-88
2023/05/26 11:10:02;;;;;;;0.82;0.22;;;18.70;99.90;;;;;;5053383;28;20041;-86
2023/05/26 11:12:48;;;;;;;4.88;1.23;;;18.70;99.90;;;;;;5055685;28;20098;-88
2023/05/26 11:15:34;;;;;;;0.20;0.20;;;18.80;99.90;;;;;;5052180;28;20521;-88
2023/05/26 11:18:09;;;;;;;0.20;0.20;;;19.00;99.90;;;;;;5050208;28;20049;-90
2023/05/26 11:20:39;;;;;;;0.60;0.30;;;19.10;99.90;;;;;;5051654;28;20049;-88
2023/05/26 11:23:05;;;;;;;0.38;0.38;;;19.10;99.90;;;;;;5035536;28;20079;-88
2023/05/26 11:25:30;;;;;;;0.20;0.20;;;19.20;99.90;;;;;;5053740;28;20048;-87
2023/05/26 11:27:56;;;;;;;0.75;0.30;;;19.20;99.90;;;;;;5035293;28;20041;-89
2023/05/26 11:30:22;;;;;;;0.73;0.38;;;19.20;99.90;;;;;;5053346;28;20541;-87
2023/05/26 11:32:50;;;;;;;0.40;0.40;;;19.30;99.90;;;;;;5053446;28;20094;-87
2023/05/26 11:35:28;;;;;;;1.48;0.65;;;19.20;99.90;;;;;;5052423;28;20219;-86
2023/05/26 11:37:55;;;;;;;1.35;0.60;;;19.10;99.90;;;;;;5055039;28;20045;-86
2023/05/26 11:40:21;;;;;;;0.35;0.22;;;19.20;99.90;;;;;;5054434;28;20045;-86
2023/05/26 11:42:55;;;;;;;1.88;0.82;;;19.20;99.90;;;;;;5052087;28;20119;-87
2023/05/26 11:45:22;;;;;;;1.63;0.40;;;19.00;99.90;;;;;;5067649;28;20545;-88
2023/05/26 11:47:48;;;;;;;0.63;0.63;;;19.00;99.90;;;;;;5052203;28;20509;-85
2023/05/26 11:50:14;;;;;;;0.10;0.10;;;19.00;99.90;;;;;;5052206;28;20060;-85
2023/05/26 11:52:47;;;;;;;1.63;0.75;;;19.20;99.90;;;;;;5052624;28;20491;-85
2023/05/26 11:55:14;;;;;;;0.20;0.20;;;19.20;99.90;;;;;;5051645;28;20092;-85
2023/05/26 11:57:42;;;;;;;0.80;0.80;;;19.20;99.90;;;;;;5050170;28;20394;-86
2023/05/26 12:00:19;;;;;;;0.28;0.28;;;19.30;99.90;;;;;;5034171;28;20055;-87
2023/05/26 12:02:46;;;;;;;0.68;0.68;;;19.30;99.90;;;;;;5052579;28;20056;-86
2023/05/26 12:05:26;;;;;;;0.45;0.38;;;19.40;99.90;;;;;;5052070;28;20045;-86
2023/05/26 12:08:07;;;;;;;0.88;0.40;;;19.40;99.90;;;;;;5051749;28;20041;-85
2023/05/26 12:10:33;;;;;;;1.35;0.73;;;19.30;99.90;;;;;;5052542;28;20048;-86
2023/05/26 12:12:59;;;;;;;0.52;0.30;;;19.40;99.90;;;;;;5050753;28;20049;-89
2023/05/26 12:15:25;;;;;;;0.38;0.38;;;19.50;99.90;;;;;;5049022;28;20079;-86
2023/05/26 12:17:52;;;;;;;1.42;0.77;;;19.60;99.90;;;;;;5037506;28;20443;-82
2023/05/26 12:20:20;;;;;;;0.57;0.40;;;19.50;99.90;;;;;;5053444;28;20059;-79
2023/05/26 12:22:50;;;;;;;0.20;0.20;;;19.30;99.90;;;;;;5053910;28;20116;-88
2023/05/26 12:25:25;;;;;;;1.08;0.60;;;19.20;99.90;;;;;;5053042;28;20129;-86
2023/05/26 12:27:51;;;;;;;0.55;0.20;;;19.10;99.90;;;;;;5054642;28;20041;-89
2023/05/26 12:30:26;;;;;;;0.50;0.50;;;19.10;99.90;;;;;;5052867;28;20448;-86
2023/05/26 12:32:51;;;;;;;1.95;0.82;;;19.20;99.90;;;;;;5053380;28;20041;-86
2023/05/26 12:35:17;;;;;;;0.38;0.35;;;19.10;99.90;;;;;;5052791;28;20051;-86
2023/05/26 12:37:43;;;;;;;0.28;0.20;;;19.00;99.90;;;;;;5052710;28;20067;-85
2023/05/26 12:40:10;;;;;;;0.75;0.60;;;19.20;99.90;;;;;;5054293;28;20043;-87
2023/05/26 12:42:37;;;;;;;3.15;0.70;;;18.90;99.90;;;;;;5052923;28;20059;-85
2023/05/26 12:45:04;;;;;;;0.15;0.15;;;18.80;99.90;;;;;;5055050;28;20041;-84
2023/05/26 12:47:30;;;;;;;1.13;0.63;;;18.70;99.90;;;;;;5055793;28;20427;-86
2023/05/26 12:49:56;;;;;;;0.60;0.40;;;18.90;99.90;;;;;;5056897;28;20491;-86
2023/05/26 12:52:22;;;;;;;1.73;0.68;;;19.20;99.90;;;;;;5052456;28;20062;-85
2023/05/26 12:54:48;;;;;;;0.17;0.17;;;19.00;99.90;;;;;;5050468;28;20048;-86
2023/05/26 12:57:14;;;;;;;0.40;0.32;;;19.00;99.90;;;;;;5052011;28;20045;-89